createdAt,value
2022-12-01T00:00:12.694Z,13.37
2022-12-01T00:02:39.489Z,13.10
2022-12-01T00:05:06.299Z,13.17
2022-12-01T00:07:33.097Z,14.33
2022-12-01T00:10:18.159Z,12.17
2022-12-01T00:12:44.777Z,13.00
2022-12-01T00:15:11.646Z,14.00
2022-12-01T00:17:39.022Z,13.47
2022-12-01T00:20:07.160Z,12.67
2022-12-01T00:22:33.800Z,13.17
2022-12-01T00:25:00.549Z,14.40
2022-12-01T00:27:27.187Z,13.73
2022-12-01T00:29:53.884Z,14.93
2022-12-01T00:32:20.534Z,14.20
2022-12-01T00:34:47.179Z,13.37
2022-12-01T00:37:13.818Z,13.13
2022-12-01T00:39:40.445Z,14.57
2022-12-01T00:42:12.898Z,14.33
2022-12-01T00:44:40.088Z,13.73
2022-12-01T00:47:06.927Z,15.50
2022-12-01T00:49:33.595Z,14.50
2022-12-01T00:52:01.287Z,14.83
2022-12-01T00:54:28.364Z,14.53
2022-12-01T00:56:54.973Z,13.73
2022-12-01T00:59:21.639Z,14.30
2022-12-01T01:01:49.772Z,14.33
2022-12-01T01:04:16.719Z,14.23
2022-12-01T01:06:43.471Z,14.50
2022-12-01T01:09:11.137Z,15.27
2022-12-01T01:11:37.857Z,14.67
2022-12-01T01:14:05.303Z,13.37
2022-12-01T01:16:32.450Z,15.50
2022-12-01T01:18:59.598Z,14.60
2022-12-01T01:21:26.878Z,15.23
2022-12-01T01:23:55.053Z,14.17
2022-12-01T01:26:24.271Z,15.20
2022-12-01T01:28:51.442Z,15.47
2022-12-01T01:31:23.695Z,14.40
2022-12-01T01:33:50.443Z,15.87
2022-12-01T01:36:18.307Z,15.63
2022-12-01T01:38:45.207Z,15.30
2022-12-01T01:41:12.254Z,14.80
2022-12-01T01:43:49.381Z,15.00
2022-12-01T01:46:19.067Z,16.30
2022-12-01T01:48:53.389Z,15.00
2022-12-01T01:51:25.259Z,14.97
2022-12-01T01:53:56.438Z,14.77
2022-12-01T01:56:24.140Z,14.90
2022-12-01T01:58:52.275Z,14.90
2022-12-01T02:01:19.132Z,15.93
2022-12-01T02:03:47.387Z,14.10
2022-12-01T02:06:14.930Z,13.97
2022-12-01T02:08:41.573Z,15.27
2022-12-01T02:11:33.064Z,15.07
2022-12-01T02:14:25.341Z,15.57
2022-12-01T02:17:09.890Z,15.07
2022-12-01T02:20:14.407Z,15.10
2022-12-01T02:22:44.034Z,14.93
2022-12-01T02:25:18.342Z,15.33
2022-12-01T02:28:36.904Z,15.10
2022-12-01T02:31:15.172Z,16.07
2022-12-01T02:33:44.015Z,15.50
2022-12-01T02:36:19.570Z,15.80
2022-12-01T02:38:58.086Z,15.17
2022-12-01T02:41:27.445Z,14.90
2022-12-01T02:44:03.193Z,15.83
2022-12-01T02:46:35.559Z,15.87
2022-12-01T02:49:06.855Z,15.53
2022-12-01T02:51:37.319Z,15.63
2022-12-01T02:54:05.854Z,15.40
2022-12-01T02:56:32.548Z,15.03
2022-12-01T02:58:59.160Z,14.87
2022-12-01T03:02:02.988Z,14.93
2022-12-01T03:05:09.057Z,14.80
2022-12-01T03:07:45.761Z,14.33
2022-12-01T03:10:26.298Z,13.73
2022-12-01T03:13:05.046Z,13.77
2022-12-01T03:16:03.805Z,14.03
2022-12-01T03:18:42.347Z,13.47
2022-12-01T03:21:34.796Z,14.67
2022-12-01T03:24:06.464Z,14.17
2022-12-01T03:26:36.335Z,15.20
2022-12-01T03:29:08.259Z,13.70
2022-12-01T03:31:45.688Z,15.50
2022-12-01T03:34:18.037Z,14.50
2022-12-01T03:36:51.712Z,14.87
2022-12-01T03:39:23.925Z,15.10
2022-12-01T03:42:20.651Z,14.87
2022-12-01T03:44:55.236Z,14.30
2022-12-01T03:47:25.023Z,15.10
2022-12-01T03:49:54.026Z,14.10
2022-12-01T03:52:44.220Z,15.50
2022-12-01T03:55:31.967Z,14.47
2022-12-01T03:58:01.731Z,14.83
2022-12-01T04:00:29.539Z,14.53
2022-12-01T04:02:58.508Z,13.23
2022-12-01T04:05:26.551Z,14.63
2022-12-01T04:07:53.507Z,14.53
2022-12-01T04:10:20.233Z,14.50
2022-12-01T04:12:46.945Z,15.07
2022-12-01T04:15:14.959Z,15.17
2022-12-01T04:17:43.515Z,15.63
2022-12-01T04:20:15.064Z,13.93
2022-12-01T04:22:42.097Z,15.00
2022-12-01T04:25:09.813Z,15.30
2022-12-01T04:27:37.006Z,14.90
2022-12-01T04:30:05.310Z,15.23
2022-12-01T04:32:37.342Z,14.83
2022-12-01T04:35:04.117Z,13.93
2022-12-01T04:37:30.726Z,15.10
2022-12-01T04:39:57.307Z,15.57
2022-12-01T04:42:23.902Z,15.83
2022-12-01T04:44:50.567Z,14.37
2022-12-01T04:47:17.200Z,14.53
2022-12-01T04:49:43.862Z,15.60
2022-12-01T04:52:10.498Z,14.27
2022-12-01T04:54:37.166Z,15.40
2022-12-01T04:57:03.925Z,14.33
2022-12-01T04:59:30.621Z,15.40
2022-12-01T05:01:57.403Z,14.80
2022-12-01T05:04:24.431Z,14.03
2022-12-01T05:06:53.678Z,14.80
2022-12-01T05:09:21.334Z,14.57
2022-12-01T05:11:48.054Z,14.23
2022-12-01T05:14:14.689Z,14.67
2022-12-01T05:16:41.418Z,14.20
2022-12-01T05:19:26.591Z,15.13
2022-12-01T05:21:53.369Z,14.33
2022-12-01T05:24:21.324Z,14.63
2022-12-01T05:26:48.274Z,14.33
2022-12-01T05:29:15.095Z,14.07
2022-12-01T05:31:42.251Z,13.47
2022-12-01T05:34:09.486Z,13.13
2022-12-01T05:36:36.455Z,14.23
2022-12-01T05:39:04.011Z,13.87
2022-12-01T05:41:30.755Z,14.23
2022-12-01T05:43:57.516Z,14.20
2022-12-01T05:46:24.270Z,13.97
2022-12-01T05:48:51.034Z,14.50
2022-12-01T05:51:17.933Z,15.20
2022-12-01T05:53:45.423Z,13.73
2022-12-01T05:56:12.449Z,14.27
2022-12-01T05:58:39.152Z,15.27
2022-12-01T06:01:05.970Z,15.53
2022-12-01T06:03:32.608Z,14.57
2022-12-01T06:05:59.263Z,15.33
2022-12-01T06:08:25.939Z,14.77
2022-12-01T06:10:52.642Z,15.73
2022-12-01T06:13:19.322Z,16.10
2022-12-01T06:15:45.991Z,15.60
2022-12-01T06:18:12.748Z,16.27
2022-12-01T06:20:39.373Z,15.93
2022-12-01T06:23:06.047Z,15.87
2022-12-01T06:25:32.704Z,15.03
2022-12-01T06:27:59.538Z,16.27
2022-12-01T06:30:26.501Z,16.10
2022-12-01T06:32:53.288Z,16.03
2022-12-01T06:35:20.434Z,14.63
2022-12-01T06:37:47.087Z,16.53
2022-12-01T06:40:13.981Z,16.40
2022-12-01T06:42:40.620Z,16.20
2022-12-01T06:45:07.730Z,16.10
2022-12-01T06:47:34.803Z,16.40
2022-12-01T06:50:01.647Z,16.40
2022-12-01T06:52:28.518Z,17.47
2022-12-01T06:54:55.209Z,18.27
2022-12-01T06:57:23.964Z,18.43
2022-12-01T06:59:51.264Z,17.43
2022-12-01T07:02:18.268Z,16.33
2022-12-01T07:04:44.988Z,18.13
2022-12-01T07:07:12.179Z,17.27
2022-12-01T07:09:39.243Z,17.53
2022-12-01T07:12:06.334Z,17.30
2022-12-01T07:14:33.103Z,18.33
2022-12-01T07:16:59.919Z,17.23
2022-12-01T07:19:26.836Z,18.43
2022-12-01T07:21:53.434Z,17.50
2022-12-01T07:24:20.029Z,16.73
2022-12-01T07:26:47.932Z,17.27
2022-12-01T07:29:14.580Z,17.53
2022-12-01T07:31:41.350Z,18.27
2022-12-01T07:34:13.240Z,17.87
2022-12-01T07:36:39.924Z,17.17
2022-12-01T07:39:08.261Z,17.17
2022-12-01T07:41:35.547Z,18.13
2022-12-01T07:44:02.699Z,18.23
2022-12-01T07:46:29.507Z,16.73
2022-12-01T07:48:57.046Z,19.03
2022-12-01T07:51:25.212Z,18.07
2022-12-01T07:53:53.578Z,18.37
2022-12-01T07:56:21.182Z,17.90
2022-12-01T07:58:47.937Z,16.17
2022-12-01T08:01:17.404Z,18.83
2022-12-01T08:03:44.288Z,18.43
2022-12-01T08:06:11.888Z,19.03
2022-12-01T08:08:40.798Z,18.33
2022-12-01T08:11:12.521Z,19.60
2022-12-01T08:13:40.096Z,18.67
2022-12-01T08:16:09.166Z,19.93
2022-12-01T08:18:36.887Z,19.50
2022-12-01T08:21:04.753Z,20.10
2022-12-01T08:23:31.657Z,19.17
2022-12-01T08:26:07.008Z,20.00
2022-12-01T08:28:36.279Z,18.60
2022-12-01T08:31:21.247Z,19.47
2022-12-01T08:33:49.175Z,17.50
2022-12-01T08:36:16.158Z,17.77
2022-12-01T08:38:48.492Z,17.87
2022-12-01T08:41:15.971Z,18.83
2022-12-01T08:44:00.915Z,19.37
2022-12-01T08:46:33.398Z,18.17
2022-12-01T08:49:00.515Z,19.07
2022-12-01T08:51:28.004Z,17.40
2022-12-01T08:53:56.353Z,18.77
2022-12-01T08:56:31.860Z,19.77
2022-12-01T08:58:58.929Z,19.17
2022-12-01T09:01:26.352Z,18.83
2022-12-01T09:04:05.480Z,18.73
2022-12-01T09:06:35.123Z,17.10
2022-12-01T09:09:02.225Z,18.67
2022-12-01T09:11:28.919Z,20.10
2022-12-01T09:13:55.577Z,17.70
2022-12-01T09:16:22.393Z,18.43
2022-12-01T09:18:49.363Z,19.10
2022-12-01T09:21:22.557Z,19.37
2022-12-01T09:23:50.138Z,18.77
2022-12-01T09:26:19.100Z,18.93
2022-12-01T09:28:47.816Z,19.03
2022-12-01T09:31:16.153Z,18.60
2022-12-01T09:33:43.153Z,19.70
2022-12-01T09:36:11.101Z,19.13
2022-12-01T09:38:38.945Z,19.47
2022-12-01T09:41:19.096Z,18.83
2022-12-01T09:44:30.278Z,18.67
2022-12-01T09:47:14.493Z,17.73
2022-12-01T09:49:59.511Z,19.33
2022-12-01T09:52:28.728Z,19.63
2022-12-01T09:54:57.901Z,21.00
2022-12-01T09:57:37.465Z,20.07
2022-12-01T10:00:31.674Z,19.73
2022-12-01T10:03:09.740Z,19.37
2022-12-01T10:09:03.469Z,19.27
2022-12-01T10:11:39.501Z,18.80
2022-12-01T10:14:17.988Z,18.67
2022-12-01T10:17:04.267Z,18.90
2022-12-01T10:19:31.921Z,17.00
2022-12-01T10:22:23.731Z,17.90
2022-12-01T10:25:25.530Z,18.70
2022-12-01T10:28:05.142Z,17.90
2022-12-01T10:30:39.226Z,18.37
2022-12-01T10:33:24.769Z,19.17
2022-12-01T10:35:52.405Z,18.23
2022-12-01T10:38:35.282Z,17.73
2022-12-01T10:41:04.350Z,19.37
2022-12-01T10:43:52.359Z,18.53
2022-12-01T10:46:33.567Z,17.23
2022-12-01T10:49:09.011Z,19.03
2022-12-01T10:51:54.485Z,17.53
2022-12-01T10:54:23.866Z,16.70
2022-12-01T10:56:56.620Z,17.43
2022-12-01T10:59:37.813Z,17.47
2022-12-01T11:02:14.300Z,16.93
2022-12-01T11:04:45.962Z,17.50
2022-12-01T11:07:19.406Z,18.10
2022-12-01T11:10:02.783Z,18.37
2022-12-01T11:12:29.733Z,16.53
2022-12-01T11:14:57.541Z,18.53
2022-12-01T11:17:38.875Z,16.83
2022-12-01T11:20:30.160Z,17.43
2022-12-01T11:23:24.393Z,16.83
2022-12-01T11:25:59.119Z,17.90
2022-12-01T11:28:26.366Z,17.97
2022-12-01T11:31:02.498Z,17.37
2022-12-01T11:33:30.735Z,16.20
2022-12-01T11:35:57.544Z,17.87
2022-12-01T11:38:32.609Z,18.67
2022-12-01T11:40:59.432Z,19.93
2022-12-01T11:43:34.241Z,17.47
2022-12-01T11:46:07.718Z,17.33
2022-12-01T11:48:36.295Z,16.97
2022-12-01T11:51:31.946Z,15.27
2022-12-01T11:54:13.758Z,16.83
2022-12-01T11:56:41.767Z,17.10
2022-12-01T11:59:21.229Z,15.10
2022-12-01T12:02:03.530Z,16.93
2022-12-01T12:04:42.406Z,17.47
2022-12-01T12:07:26.441Z,14.93
2022-12-01T12:09:55.949Z,16.63
2022-12-01T12:12:48.232Z,17.57
2022-12-01T12:15:50.512Z,16.30
2022-12-01T12:18:43.748Z,15.83
2022-12-01T12:21:10.392Z,15.67
2022-12-01T12:23:40.008Z,16.73
2022-12-01T12:26:09.815Z,17.57
2022-12-01T12:28:45.652Z,16.27
2022-12-01T12:31:24.411Z,15.53
2022-12-01T12:34:19.155Z,15.67
2022-12-01T12:37:15.733Z,15.60
2022-12-01T12:40:08.115Z,15.33
2022-12-01T12:42:46.683Z,16.13
2022-12-01T12:45:36.872Z,15.57
2022-12-01T12:48:06.212Z,16.13
2022-12-01T12:50:40.037Z,17.07
2022-12-01T12:53:15.796Z,16.23
2022-12-01T12:55:48.162Z,15.70
2022-12-01T12:58:29.501Z,16.77
2022-12-01T13:01:01.438Z,14.97
2022-12-01T13:03:43.269Z,15.43
2022-12-01T13:06:28.415Z,15.90
2022-12-01T13:09:15.910Z,15.10
2022-12-01T13:11:59.579Z,14.63
2022-12-01T13:14:38.427Z,15.57
2022-12-01T13:17:38.502Z,15.47
2022-12-01T13:20:06.658Z,16.13
2022-12-01T13:22:35.772Z,15.50
2022-12-01T13:25:04.113Z,16.93
2022-12-01T13:27:38.334Z,16.13
2022-12-01T13:30:05.803Z,15.13
2022-12-01T13:32:36.737Z,16.40
2022-12-01T13:35:25.072Z,17.37
2022-12-01T13:37:52.066Z,16.60
2022-12-01T13:40:30.556Z,16.63
2022-12-01T13:43:05.459Z,16.20
2022-12-01T13:45:40.535Z,15.53
2022-12-01T13:48:27.629Z,16.93
2022-12-01T13:51:05.221Z,18.40
2022-12-01T13:53:37.145Z,17.43
2022-12-01T13:56:24.148Z,16.97
2022-12-01T13:58:53.780Z,15.47
2022-12-01T14:01:20.890Z,14.17
2022-12-01T14:03:57.355Z,15.70
2022-12-01T14:06:36.046Z,15.40
2022-12-01T14:09:25.524Z,15.17
2022-12-01T14:12:00.476Z,16.67
2022-12-01T14:14:34.539Z,15.40
2022-12-01T14:17:03.255Z,14.40
2022-12-01T14:19:32.949Z,15.67
2022-12-01T14:22:01.515Z,15.67
2022-12-01T14:24:36.065Z,14.70
2022-12-01T14:27:04.863Z,15.57
2022-12-01T14:29:38.851Z,15.80
2022-12-01T14:32:19.395Z,16.30
2022-12-01T14:34:50.097Z,15.30
2022-12-01T14:37:20.888Z,15.83
2022-12-01T14:39:57.516Z,14.70
2022-12-01T14:43:01.442Z,15.70
2022-12-01T14:45:51.934Z,14.97
2022-12-01T14:48:34.661Z,15.27
2022-12-01T14:51:22.435Z,14.57
2022-12-01T14:53:51.981Z,14.93
2022-12-01T14:56:20.750Z,14.57
2022-12-01T14:58:56.585Z,14.43
2022-12-01T15:01:24.252Z,14.60
2022-12-01T15:03:56.811Z,14.47
2022-12-01T15:06:29.372Z,13.80
2022-12-01T15:12:04.679Z,14.93
2022-12-01T15:14:37.713Z,14.17
2022-12-01T15:17:08.956Z,14.27
2022-12-01T15:19:41.168Z,14.63
2022-12-01T15:22:17.841Z,13.83
2022-12-01T15:24:45.739Z,14.20
2022-12-01T15:27:30.301Z,14.50
2022-12-01T15:30:06.232Z,13.87
2022-12-01T15:32:38.255Z,13.67
2022-12-01T15:35:07.328Z,14.50
2022-12-01T15:37:44.575Z,14.17
2022-12-01T15:43:14.565Z,14.73
2022-12-01T15:46:13.346Z,14.23
2022-12-01T15:48:41.654Z,15.00
2022-12-01T15:51:18.864Z,14.53
2022-12-01T15:53:54.057Z,14.97
2022-12-01T15:56:40.975Z,15.53
2022-12-01T15:59:14.008Z,14.53
2022-12-01T16:01:43.520Z,14.50
2022-12-01T16:04:19.606Z,15.93
2022-12-01T16:07:05.289Z,14.73
2022-12-01T16:09:36.924Z,14.70
2022-12-01T16:12:04.604Z,16.40
2022-12-01T16:14:32.379Z,15.03
2022-12-01T16:17:00.005Z,15.37
2022-12-01T16:19:32.312Z,15.53
2022-12-01T16:22:20.224Z,15.67
2022-12-01T16:24:55.235Z,14.90
2022-12-01T16:27:26.223Z,13.80
2022-12-01T16:29:58.762Z,15.40
2022-12-01T16:32:34.067Z,15.77
2022-12-01T16:35:01.213Z,14.83
2022-12-01T16:37:28.582Z,16.07
2022-12-01T16:39:55.489Z,15.27
2022-12-01T16:42:22.635Z,16.63
2022-12-01T16:44:51.267Z,15.80
2022-12-01T16:47:25.336Z,15.57
2022-12-01T16:49:53.062Z,16.37
2022-12-01T16:55:20.790Z,15.70
2022-12-01T16:57:47.470Z,15.23
2022-12-01T17:00:14.639Z,15.80
2022-12-01T17:02:41.414Z,16.17
2022-12-01T17:05:10.576Z,16.20
2022-12-01T17:07:37.369Z,15.70
2022-12-01T17:10:05.485Z,16.13
2022-12-01T17:12:32.136Z,15.80
2022-12-01T17:14:58.853Z,16.97
2022-12-01T17:17:25.574Z,15.90
2022-12-01T17:19:52.952Z,16.17
2022-12-01T17:22:20.085Z,16.80
2022-12-01T17:24:46.905Z,16.17
2022-12-01T17:27:13.839Z,16.57
2022-12-01T17:29:44.532Z,15.53
2022-12-01T17:32:13.711Z,16.40
2022-12-01T17:34:40.662Z,15.40
2022-12-01T17:37:07.891Z,16.57
2022-12-01T17:39:34.939Z,15.93
2022-12-01T17:42:01.618Z,15.53
2022-12-01T17:44:28.386Z,16.00
2022-12-01T17:46:55.150Z,15.33
2022-12-01T17:49:22.416Z,15.87
2022-12-01T17:51:49.224Z,15.80
2022-12-01T17:54:16.262Z,15.77
2022-12-01T17:56:43.208Z,16.00
2022-12-01T17:59:09.936Z,16.13
2022-12-01T18:01:36.891Z,15.60
2022-12-01T18:04:04.038Z,15.80
2022-12-01T18:06:30.725Z,14.70
2022-12-01T18:08:58.851Z,14.37
2022-12-01T18:11:25.637Z,14.87
2022-12-01T18:13:52.813Z,14.60
2022-12-01T18:16:21.257Z,15.57
2022-12-01T18:18:48.806Z,15.20
2022-12-01T18:21:17.914Z,15.73
2022-12-01T18:23:56.763Z,14.67
2022-12-01T18:26:24.416Z,15.70
2022-12-01T18:29:05.141Z,15.33
2022-12-01T18:31:32.957Z,13.97
2022-12-01T18:34:02.988Z,15.53
2022-12-01T18:36:31.517Z,15.37
2022-12-01T18:38:59.864Z,14.80
2022-12-01T18:41:27.078Z,15.23
2022-12-01T18:43:54.140Z,14.50
2022-12-01T18:46:21.541Z,14.73
2022-12-01T18:48:51.505Z,14.73
2022-12-01T18:51:19.292Z,15.43
2022-12-01T18:53:46.178Z,14.70
2022-12-01T18:56:15.350Z,14.83
2022-12-01T18:58:42.937Z,15.17
2022-12-01T19:01:32.200Z,13.00
2022-12-01T19:03:59.799Z,14.73
2022-12-01T19:06:27.744Z,14.27
2022-12-01T19:08:55.040Z,14.10
2022-12-01T19:11:21.874Z,15.07
2022-12-01T19:13:48.872Z,14.47
2022-12-01T19:16:18.415Z,15.33
2022-12-01T19:18:45.277Z,14.97
2022-12-01T19:21:14.612Z,14.83
2022-12-01T19:23:41.664Z,14.83
2022-12-01T19:26:12.016Z,15.57
2022-12-01T19:28:40.329Z,15.90
2022-12-01T19:31:09.038Z,15.37
2022-12-01T19:33:35.929Z,14.63
2022-12-01T19:36:11.576Z,14.63
2022-12-01T19:38:41.072Z,15.13
2022-12-01T19:41:09.159Z,16.23
2022-12-01T19:43:36.336Z,14.03
2022-12-01T19:46:08.146Z,14.43
2022-12-01T19:48:35.335Z,15.50
2022-12-01T19:51:02.838Z,15.80
2022-12-01T19:53:33.594Z,15.07
2022-12-01T19:56:04.853Z,15.00
2022-12-01T19:58:34.816Z,14.67
2022-12-01T20:01:12.878Z,15.03
2022-12-01T20:03:40.694Z,14.17
2022-12-01T20:06:13.056Z,16.13
2022-12-01T20:08:52.452Z,15.20
2022-12-01T20:11:19.293Z,14.90
2022-12-01T20:13:46.981Z,14.83
2022-12-01T20:16:16.459Z,16.07
2022-12-01T20:18:43.725Z,15.37
2022-12-01T20:21:16.409Z,15.57
2022-12-01T20:23:45.244Z,14.73
2022-12-01T20:26:12.497Z,15.10
2022-12-01T20:28:40.279Z,15.43
2022-12-01T20:31:16.856Z,16.10
2022-12-01T20:33:43.970Z,14.70
2022-12-01T20:36:11.020Z,15.97
2022-12-01T20:38:38.491Z,16.67
2022-12-01T20:41:06.320Z,15.13
2022-12-01T20:43:34.197Z,18.07
2022-12-01T20:46:02.071Z,16.37
2022-12-01T20:48:29.445Z,17.37
2022-12-01T20:50:56.309Z,16.40
2022-12-01T20:53:23.061Z,16.67
2022-12-01T20:55:49.932Z,15.33
2022-12-01T20:58:16.625Z,16.87
2022-12-01T21:00:46.758Z,17.20
2022-12-01T21:03:14.299Z,16.03
2022-12-01T21:05:43.182Z,16.43
2022-12-01T21:08:12.300Z,14.50
2022-12-01T21:10:44.897Z,16.07
2022-12-01T21:13:41.879Z,16.57
2022-12-01T21:16:28.701Z,15.37
2022-12-01T21:19:09.546Z,14.40
2022-12-01T21:21:40.979Z,15.53
2022-12-01T21:24:07.590Z,16.90
2022-12-01T21:26:36.374Z,14.73
2022-12-01T21:29:18.670Z,16.80
2022-12-01T21:31:46.623Z,17.43
2022-12-01T21:34:18.381Z,16.87
2022-12-01T21:36:47.683Z,14.80
2022-12-01T21:39:17.353Z,16.67
2022-12-01T21:41:44.290Z,16.17
2022-12-01T21:44:17.687Z,17.17
2022-12-01T21:46:44.747Z,16.30
2022-12-01T21:49:16.347Z,16.67
2022-12-01T21:51:43.633Z,15.70
2022-12-01T21:54:15.444Z,15.93
2022-12-01T21:56:42.712Z,16.27
2022-12-01T21:59:23.612Z,16.27
2022-12-01T22:01:56.086Z,16.03
2022-12-01T22:04:30.345Z,15.93
2022-12-01T22:06:58.425Z,16.23
2022-12-01T22:09:34.325Z,17.47
2022-12-01T22:12:10.071Z,17.07
2022-12-01T22:14:36.983Z,16.60
2022-12-01T22:17:06.425Z,17.37
2022-12-01T22:19:37.143Z,16.50
2022-12-01T22:22:09.824Z,16.70
2022-12-01T22:24:44.138Z,16.63
2022-12-01T22:27:28.969Z,16.67
2022-12-01T22:30:18.931Z,16.97
2022-12-01T22:33:03.606Z,16.97
2022-12-01T22:35:43.006Z,16.80
2022-12-01T22:38:17.336Z,17.07
2022-12-01T22:40:53.288Z,15.90
2022-12-01T22:43:24.712Z,16.80
2022-12-01T22:46:19.010Z,16.53
2022-12-01T22:48:58.993Z,17.63
2022-12-01T22:51:36.570Z,17.20
2022-12-01T22:54:15.116Z,15.73
2022-12-01T22:56:44.497Z,15.93
2022-12-01T22:59:28.134Z,16.50
2022-12-01T23:02:00.280Z,16.23
2022-12-01T23:04:28.063Z,17.37
2022-12-01T23:07:01.930Z,18.10
2022-12-01T23:09:38.428Z,17.23
2022-12-01T23:12:21.384Z,17.50
2022-12-01T23:14:54.534Z,17.37
2022-12-01T23:17:21.222Z,16.80
2022-12-01T23:19:51.210Z,17.63
2022-12-01T23:22:18.048Z,17.77
2022-12-01T23:24:45.428Z,17.67
2022-12-01T23:27:12.627Z,17.67
2022-12-01T23:29:39.366Z,18.20
2022-12-01T23:32:06.275Z,17.43
2022-12-01T23:34:34.396Z,17.07
2022-12-01T23:37:01.657Z,16.87
2022-12-01T23:39:35.123Z,16.23
2022-12-01T23:42:03.387Z,16.67
2022-12-01T23:44:45.150Z,17.03
2022-12-01T23:47:26.618Z,16.73
2022-12-01T23:50:00.584Z,17.23
2022-12-01T23:52:33.527Z,16.33
2022-12-01T23:55:00.455Z,17.53
2022-12-01T23:57:27.459Z,15.93
2022-12-01T23:59:58.283Z,15.83
